createdAt,value
2019-05-21T00:00:20.238Z,16.40
2019-05-21T00:06:40.017Z,16.30
2019-05-21T00:09:13.673Z,16.30
2019-05-21T00:11:47.431Z,16.30
2019-05-21T00:14:21.021Z,16.30
2019-05-21T00:16:54.687Z,16.30
2019-05-21T00:19:28.287Z,16.30
2019-05-21T00:22:01.917Z,16.30
2019-05-21T00:24:35.800Z,16.30
2019-05-21T00:27:09.460Z,16.30
2019-05-21T00:30:19.846Z,16.40
2019-05-21T00:33:30.091Z,16.40
2019-05-21T00:36:41.935Z,16.40
2019-05-21T00:39:51.741Z,16.40
2019-05-21T00:42:28.469Z,16.40
2019-05-21T00:45:02.203Z,16.40
2019-05-21T00:51:12.823Z,16.40
2019-05-21T00:53:46.437Z,16.40
2019-05-21T00:56:20.094Z,16.40
2019-05-21T00:58:53.683Z,16.40
2019-05-21T01:01:27.389Z,16.40
2019-05-21T01:07:47.269Z,16.40
2019-05-21T01:10:21.064Z,16.40
2019-05-21T01:12:54.681Z,16.40
2019-05-21T01:15:28.655Z,16.40
2019-05-21T01:18:02.409Z,16.40
2019-05-21T01:20:36.023Z,16.40
2019-05-21T01:23:09.653Z,16.40
2019-05-21T01:25:43.245Z,16.30
2019-05-21T01:28:16.999Z,16.40
2019-05-21T01:30:50.627Z,16.30
2019-05-21T01:33:24.249Z,16.30
2019-05-21T01:35:57.851Z,16.30
2019-05-21T01:38:31.476Z,16.30
2019-05-21T01:41:05.147Z,16.30
2019-05-21T01:43:38.740Z,16.30
2019-05-21T01:46:12.415Z,16.30
2019-05-21T01:48:46.067Z,16.30
2019-05-21T01:51:19.661Z,16.30
2019-05-21T01:53:53.296Z,16.30
2019-05-21T01:56:26.974Z,16.30
2019-05-21T01:59:00.609Z,16.30
2019-05-21T02:01:34.277Z,16.30
2019-05-21T02:04:08.051Z,16.30
2019-05-21T02:06:41.699Z,16.30
2019-05-21T02:09:15.343Z,16.30
2019-05-21T02:11:49.032Z,16.20
2019-05-21T02:14:22.699Z,16.20
2019-05-21T02:20:42.554Z,16.20
2019-05-21T02:23:16.416Z,16.20
2019-05-21T02:25:50.184Z,16.20
2019-05-21T02:28:23.787Z,16.20
2019-05-21T02:30:57.755Z,16.20
2019-05-21T02:37:17.494Z,16.20
2019-05-21T02:39:51.147Z,16.10
2019-05-21T02:42:24.797Z,16.10
2019-05-21T02:44:58.414Z,16.10
2019-05-21T02:47:32.011Z,16.10
2019-05-21T02:50:06.786Z,16.10
2019-05-21T02:52:40.551Z,16.10
2019-05-21T02:55:14.323Z,16.10
2019-05-21T02:57:47.981Z,16.10
2019-05-21T03:00:39.845Z,16.10
2019-05-21T03:03:15.148Z,16.10
2019-05-21T03:05:48.930Z,16.00
2019-05-21T03:08:22.586Z,16.00
2019-05-21T03:10:56.289Z,16.00
2019-05-21T03:13:29.978Z,16.00
2019-05-21T03:16:03.809Z,16.00
2019-05-21T03:18:37.477Z,16.00
2019-05-21T03:21:11.214Z,16.10
2019-05-21T03:23:44.803Z,16.10
2019-05-21T03:26:18.421Z,16.10
2019-05-21T03:28:52.116Z,16.10
2019-05-21T03:31:25.835Z,16.10
2019-05-21T03:33:59.521Z,16.20
2019-05-21T03:36:34.438Z,16.10
2019-05-21T03:39:09.102Z,16.10
2019-05-21T03:41:42.802Z,16.10
2019-05-21T03:44:16.445Z,16.10
2019-05-21T03:46:50.243Z,16.10
2019-05-21T03:49:23.955Z,16.10
2019-05-21T03:51:57.678Z,16.00
2019-05-21T03:54:31.259Z,15.90
2019-05-21T03:57:04.954Z,16.00
2019-05-21T03:59:38.632Z,16.00
2019-05-21T04:02:12.395Z,16.10
2019-05-21T04:04:46.041Z,16.20
2019-05-21T04:07:19.797Z,16.30
2019-05-21T04:09:53.468Z,16.30
2019-05-21T04:12:27.070Z,16.40
2019-05-21T04:15:11.450Z,16.50
2019-05-21T04:21:31.205Z,16.60
2019-05-21T04:24:08.616Z,16.70
2019-05-21T04:26:40.247Z,16.70
2019-05-21T04:29:13.861Z,16.70
2019-05-21T04:31:47.509Z,16.70
2019-05-21T04:37:57.988Z,16.70
2019-05-21T04:40:31.604Z,16.70
2019-05-21T04:43:05.211Z,16.60
2019-05-21T04:45:38.811Z,16.60
2019-05-21T04:48:12.545Z,16.60
2019-05-21T04:50:46.110Z,16.60
2019-05-21T04:53:19.829Z,16.70
2019-05-21T04:55:54.972Z,16.70
2019-05-21T04:58:28.600Z,16.90
2019-05-21T05:01:02.380Z,17.20
2019-05-21T05:03:36.100Z,17.30
2019-05-21T05:06:09.706Z,17.30
2019-05-21T05:08:43.472Z,17.40
2019-05-21T05:11:18.781Z,17.40
2019-05-21T05:13:52.382Z,17.50
2019-05-21T05:16:26.012Z,17.50
2019-05-21T05:19:00.164Z,17.50
2019-05-21T05:21:33.773Z,17.50
2019-05-21T05:24:07.420Z,17.60
2019-05-21T05:26:41.020Z,17.70
2019-05-21T05:29:14.701Z,17.90
2019-05-21T05:31:48.766Z,18.00
2019-05-21T05:34:22.453Z,18.00
2019-05-21T05:36:56.050Z,17.90
2019-05-21T05:39:29.814Z,17.90
2019-05-21T05:42:03.436Z,18.00
2019-05-21T05:44:38.273Z,17.90
2019-05-21T05:47:12.908Z,17.90
2019-05-21T05:49:48.301Z,17.60
2019-05-21T05:52:21.831Z,17.60
2019-05-21T05:54:55.435Z,17.60
2019-05-21T05:57:29.023Z,17.50
2019-05-21T06:00:02.702Z,17.50
2019-05-21T06:02:36.380Z,17.50
2019-05-21T06:05:10.909Z,17.50
2019-05-21T06:07:58.766Z,17.50
2019-05-21T06:10:20.210Z,17.40
2019-05-21T06:12:53.849Z,17.50
2019-05-21T06:15:27.718Z,17.60
2019-05-21T06:18:01.394Z,17.60
2019-05-21T06:20:35.075Z,17.60
2019-05-21T06:23:08.767Z,17.70
2019-05-21T06:25:42.434Z,17.80
2019-05-21T06:28:16.102Z,17.90
2019-05-21T06:30:49.883Z,17.90
2019-05-21T06:37:00.284Z,18.10
2019-05-21T06:39:33.941Z,17.90
2019-05-21T06:42:07.645Z,17.90
2019-05-21T06:44:41.674Z,17.90
2019-05-21T06:47:15.398Z,17.70
2019-05-21T06:53:35.302Z,17.60
2019-05-21T06:56:08.962Z,17.70
2019-05-21T06:58:42.603Z,17.80
2019-05-21T07:01:16.348Z,17.80
2019-05-21T07:03:50.070Z,17.90
2019-05-21T07:06:23.654Z,17.80
2019-05-21T07:08:57.306Z,17.90
2019-05-21T07:11:30.966Z,17.80
2019-05-21T07:14:04.937Z,17.80
2019-05-21T07:16:38.528Z,17.80
2019-05-21T07:19:12.294Z,17.80
2019-05-21T07:21:45.890Z,17.80
2019-05-21T07:24:19.652Z,17.80
2019-05-21T07:26:53.311Z,18.00
2019-05-21T07:29:26.947Z,18.20
2019-05-21T07:32:00.962Z,18.50
2019-05-21T07:34:34.789Z,18.80
2019-05-21T07:37:08.330Z,19.20
2019-05-21T07:39:41.955Z,19.50
2019-05-21T07:42:15.567Z,19.70
2019-05-21T07:44:49.256Z,20.10
2019-05-21T07:47:22.920Z,20.90
2019-05-21T07:49:56.660Z,21.20
2019-05-21T07:52:30.791Z,21.50
2019-05-21T07:55:05.523Z,21.70
2019-05-21T07:57:39.229Z,21.70
2019-05-21T08:00:13.227Z,21.90
2019-05-21T08:02:46.884Z,21.90
2019-05-21T08:05:20.482Z,22.20
2019-05-21T08:07:54.144Z,22.20
2019-05-21T08:10:27.742Z,22.40
2019-05-21T08:13:01.448Z,22.40
2019-05-21T08:15:35.433Z,22.50
2019-05-21T08:18:09.048Z,22.60
2019-05-21T08:20:42.647Z,22.90
2019-05-21T08:23:16.430Z,22.20
2019-05-21T08:25:50.136Z,22.30
2019-05-21T08:28:23.746Z,21.90
2019-05-21T08:30:57.446Z,22.00
2019-05-21T08:33:32.083Z,22.10
2019-05-21T08:36:06.218Z,22.40
2019-05-21T08:38:39.987Z,22.40
2019-05-21T08:41:13.703Z,22.40
2019-05-21T08:43:47.357Z,22.60
2019-05-21T08:46:21.188Z,22.40
2019-05-21T08:48:54.749Z,22.50
2019-05-21T08:51:28.446Z,22.40
2019-05-21T08:54:02.161Z,22.40
2019-05-21T08:56:35.856Z,22.30
2019-05-21T08:59:09.587Z,22.50
2019-05-21T09:01:43.289Z,22.60
2019-05-21T09:07:54.291Z,22.90
2019-05-21T09:10:28.892Z,22.70
2019-05-21T09:13:02.521Z,23.10
2019-05-21T09:15:36.125Z,23.00
2019-05-21T09:18:09.799Z,23.10
2019-05-21T09:24:29.705Z,22.90
2019-05-21T09:27:03.272Z,22.50
2019-05-21T09:29:36.905Z,22.40
2019-05-21T09:32:10.577Z,22.20
2019-05-21T09:34:48.759Z,22.10
2019-05-21T09:37:20.483Z,22.10
2019-05-21T09:39:54.548Z,22.10
2019-05-21T09:42:28.809Z,22.10
2019-05-21T09:45:02.495Z,22.10
2019-05-21T09:47:36.232Z,22.00
2019-05-21T09:50:10.636Z,21.90
2019-05-21T09:52:44.439Z,22.00
2019-05-21T09:55:18.149Z,22.10
2019-05-21T09:58:11.649Z,22.00
2019-05-21T10:00:49.518Z,21.30
2019-05-21T10:03:33.737Z,21.20
2019-05-21T10:06:07.771Z,20.90
2019-05-21T10:08:42.361Z,20.80
2019-05-21T10:11:15.975Z,20.50
2019-05-21T10:13:49.691Z,20.60
2019-05-21T10:16:23.288Z,20.60
2019-05-21T10:18:56.942Z,20.80
2019-05-21T10:21:30.735Z,20.60
2019-05-21T10:24:04.950Z,20.60
2019-05-21T10:26:39.636Z,20.50
2019-05-21T10:29:14.235Z,20.40
2019-05-21T10:31:47.967Z,20.50
2019-05-21T10:34:21.609Z,20.80
2019-05-21T10:36:55.306Z,20.70
2019-05-21T10:39:29.090Z,20.70
2019-05-21T10:42:03.886Z,20.60
2019-05-21T10:44:37.651Z,20.90
2019-05-21T10:47:15.936Z,21.10
2019-05-21T10:53:14.901Z,21.30
2019-05-21T10:55:48.657Z,21.40
2019-05-21T10:58:22.382Z,21.40
2019-05-21T11:01:00.438Z,21.50
2019-05-21T11:03:41.686Z,21.30
2019-05-21T11:09:52.711Z,21.30
2019-05-21T11:12:26.373Z,21.30
2019-05-21T11:15:00.126Z,21.30
2019-05-21T11:17:49.644Z,21.40
2019-05-21T11:20:10.231Z,21.70
2019-05-21T11:22:43.851Z,21.60
2019-05-21T11:25:17.529Z,21.50
2019-05-21T11:27:51.276Z,21.20
2019-05-21T11:30:25.109Z,21.30
2019-05-21T11:32:58.830Z,21.30
2019-05-21T11:35:36.018Z,21.50
2019-05-21T11:38:08.926Z,21.20
2019-05-21T11:40:42.683Z,21.30
2019-05-21T11:43:16.429Z,21.50
2019-05-21T11:45:50.070Z,21.20
2019-05-21T11:48:23.844Z,21.30
2019-05-21T11:50:57.580Z,21.60
2019-05-21T11:53:32.022Z,21.80
2019-05-21T11:56:06.301Z,22.00
2019-05-21T11:58:40.173Z,22.10
2019-05-21T12:01:13.951Z,22.10
2019-05-21T12:03:47.598Z,22.00
2019-05-21T12:06:21.384Z,22.30
2019-05-21T12:08:57.084Z,22.20
2019-05-21T12:11:30.266Z,22.10
2019-05-21T12:14:05.434Z,22.10
2019-05-21T12:16:39.037Z,22.40
2019-05-21T12:19:13.104Z,22.10
2019-05-21T12:21:47.015Z,21.90
2019-05-21T12:24:20.757Z,21.80
2019-05-21T12:26:54.473Z,21.90
2019-05-21T12:29:28.168Z,21.90
2019-05-21T12:32:01.758Z,21.80
2019-05-21T12:34:38.772Z,21.60
2019-05-21T12:37:10.825Z,21.60
2019-05-21T12:39:44.441Z,21.20
2019-05-21T12:42:18.074Z,21.40
2019-05-21T12:44:51.677Z,21.00
2019-05-21T12:47:25.683Z,21.00
2019-05-21T12:49:59.583Z,21.30
2019-05-21T12:52:33.891Z,21.20
2019-05-21T12:55:09.143Z,21.00
2019-05-21T12:57:42.729Z,20.80
2019-05-21T13:00:17.150Z,21.10
2019-05-21T13:02:50.787Z,21.20
2019-05-21T13:05:24.397Z,21.40
2019-05-21T13:07:58.039Z,21.50
2019-05-21T13:10:31.794Z,21.50
2019-05-21T13:13:05.844Z,21.30
2019-05-21T13:15:39.486Z,21.40
2019-05-21T13:18:13.071Z,21.40
2019-05-21T13:24:24.189Z,21.70
2019-05-21T13:26:57.784Z,21.90
2019-05-21T13:29:31.617Z,22.10
2019-05-21T13:32:05.357Z,22.00
2019-05-21T13:34:38.987Z,21.70
2019-05-21T13:40:59.516Z,21.80
2019-05-21T13:43:33.300Z,21.90
2019-05-21T13:46:07.152Z,22.10
2019-05-21T13:48:40.734Z,22.00
2019-05-21T13:51:14.434Z,22.10
2019-05-21T13:53:48.127Z,21.90
2019-05-21T13:56:21.864Z,21.60
2019-05-21T13:58:55.825Z,21.60
2019-05-21T14:01:39.986Z,21.80
2019-05-21T14:04:05.072Z,22.10
2019-05-21T14:06:38.860Z,22.40
2019-05-21T14:09:12.784Z,22.30
2019-05-21T14:11:46.871Z,22.00
2019-05-21T14:14:20.597Z,22.20
2019-05-21T14:16:54.173Z,21.90
2019-05-21T14:19:27.750Z,21.90
2019-05-21T14:22:01.415Z,21.90
2019-05-21T14:24:35.083Z,22.00
2019-05-21T14:27:08.802Z,21.90
2019-05-21T14:29:42.450Z,22.10
2019-05-21T14:32:16.234Z,22.20
2019-05-21T14:35:00.788Z,22.50
2019-05-21T14:37:25.415Z,22.50
2019-05-21T14:39:59.081Z,22.60
2019-05-21T14:42:33.776Z,22.30
2019-05-21T14:45:08.119Z,22.40
2019-05-21T14:47:41.782Z,22.60
2019-05-21T14:50:15.628Z,22.80
2019-05-21T14:52:52.316Z,22.80
2019-05-21T14:55:25.696Z,22.50
2019-05-21T14:57:59.395Z,22.50
2019-05-21T15:00:36.094Z,22.20
2019-05-21T15:03:24.295Z,22.40
2019-05-21T15:05:45.106Z,22.10
2019-05-21T15:08:18.732Z,22.10
2019-05-21T15:10:53.368Z,22.30
2019-05-21T15:13:26.999Z,22.40
2019-05-21T15:16:00.599Z,22.60
2019-05-21T15:18:34.489Z,22.60
2019-05-21T15:21:10.236Z,22.60
2019-05-21T15:23:45.094Z,22.60
2019-05-21T15:26:19.689Z,22.20
2019-05-21T15:28:53.628Z,22.10
2019-05-21T15:31:27.426Z,21.80
2019-05-21T15:34:02.030Z,21.60
2019-05-21T15:40:13.082Z,21.20
2019-05-21T15:42:51.910Z,21.00
2019-05-21T15:45:22.210Z,20.90
2019-05-21T15:47:56.011Z,20.90
2019-05-21T15:50:29.585Z,20.90
2019-05-21T15:56:49.417Z,20.60
2019-05-21T15:59:23.117Z,20.40
2019-05-21T16:01:56.723Z,20.30
2019-05-21T16:04:30.382Z,20.10
2019-05-21T16:07:04.271Z,20.10
2019-05-21T16:09:38.225Z,20.20
2019-05-21T16:12:11.861Z,20.20
2019-05-21T16:14:45.734Z,20.20
2019-05-21T16:17:20.446Z,20.00
2019-05-21T16:19:54.130Z,20.00
2019-05-21T16:22:27.756Z,20.10
2019-05-21T16:25:01.419Z,20.20
2019-05-21T16:27:35.016Z,20.10
2019-05-21T16:30:09.476Z,20.20
2019-05-21T16:32:43.288Z,20.30
2019-05-21T16:35:17.233Z,20.60
2019-05-21T16:37:50.982Z,20.80
2019-05-21T16:40:24.940Z,20.90
2019-05-21T16:42:58.578Z,21.00
2019-05-21T16:45:32.588Z,21.10
2019-05-21T16:48:06.592Z,21.20
2019-05-21T16:50:40.337Z,21.30
2019-05-21T16:53:14.129Z,21.40
2019-05-21T16:55:47.853Z,21.40
2019-05-21T16:58:21.556Z,21.50
2019-05-21T17:00:55.148Z,21.50
2019-05-21T17:03:28.856Z,21.50
2019-05-21T17:06:02.513Z,21.60
2019-05-21T17:08:36.525Z,21.70
2019-05-21T17:11:10.202Z,21.70
2019-05-21T17:13:43.908Z,21.50
2019-05-21T17:16:17.519Z,21.30
2019-05-21T17:18:51.286Z,21.10
2019-05-21T17:21:25.014Z,21.10
2019-05-21T17:23:58.716Z,21.00
2019-05-21T17:26:32.533Z,20.70
2019-05-21T17:29:06.220Z,20.70
2019-05-21T17:31:39.822Z,20.40
2019-05-21T17:34:13.595Z,20.20
2019-05-21T17:36:47.174Z,20.00
2019-05-21T17:39:20.798Z,19.80
2019-05-21T17:41:54.767Z,19.70
2019-05-21T17:44:32.602Z,19.60
2019-05-21T17:47:06.365Z,19.50
2019-05-21T17:49:40.017Z,19.50
2019-05-21T17:52:14.691Z,19.40
2019-05-21T17:54:56.631Z,19.30
2019-05-21T17:57:24.124Z,19.20
2019-05-21T17:59:57.734Z,18.90
2019-05-21T18:02:31.419Z,18.90
2019-05-21T18:05:08.529Z,18.70
2019-05-21T18:11:19.096Z,18.50
2019-05-21T18:13:52.824Z,18.40
2019-05-21T18:16:26.561Z,18.40
2019-05-21T18:19:00.709Z,18.30
2019-05-21T18:21:35.800Z,18.20
2019-05-21T18:27:46.741Z,18.10
2019-05-21T18:30:20.798Z,18.10
2019-05-21T18:32:54.752Z,18.10
2019-05-21T18:35:28.453Z,18.10
2019-05-21T18:38:02.137Z,18.10
2019-05-21T18:40:35.782Z,18.10
2019-05-21T18:43:09.557Z,18.10
2019-05-21T18:45:43.265Z,18.10
2019-05-21T18:48:16.870Z,18.10
2019-05-21T18:50:50.550Z,18.10
2019-05-21T18:53:24.211Z,18.10
2019-05-21T18:55:58.799Z,18.00
2019-05-21T18:58:32.845Z,17.90
2019-05-21T19:01:06.731Z,17.90
2019-05-21T19:03:40.383Z,17.80
2019-05-21T19:06:14.160Z,17.80
2019-05-21T19:08:47.810Z,17.70
2019-05-21T19:11:21.595Z,17.70
2019-05-21T19:13:55.427Z,17.70
2019-05-21T19:16:30.048Z,17.60
2019-05-21T19:19:03.917Z,17.60
2019-05-21T19:21:37.619Z,17.60
2019-05-21T19:24:11.253Z,17.60
2019-05-21T19:26:44.979Z,17.60
2019-05-21T19:29:18.629Z,17.50
2019-05-21T19:31:52.601Z,17.40
2019-05-21T19:34:26.302Z,17.50
2019-05-21T19:36:59.906Z,17.40
2019-05-21T19:39:33.780Z,17.40
2019-05-21T19:42:07.873Z,17.40
2019-05-21T19:44:41.648Z,17.40
2019-05-21T19:47:15.270Z,17.30
2019-05-21T19:49:49.000Z,17.40
2019-05-21T19:52:22.660Z,17.30
2019-05-21T19:54:56.284Z,17.30
2019-05-21T19:57:31.015Z,17.30
2019-05-21T20:00:07.314Z,17.30
2019-05-21T20:02:40.959Z,17.20
2019-05-21T20:05:14.746Z,17.10
2019-05-21T20:07:48.611Z,17.10
2019-05-21T20:10:22.683Z,17.00
2019-05-21T20:12:56.708Z,16.90
2019-05-21T20:15:30.499Z,16.90
2019-05-21T20:18:07.444Z,16.80
2019-05-21T20:20:40.265Z,16.70
2019-05-21T20:23:15.648Z,16.70
2019-05-21T20:25:56.447Z,16.70
2019-05-21T20:28:26.753Z,16.60
2019-05-21T20:31:00.610Z,16.60
2019-05-21T20:33:35.234Z,16.50
2019-05-21T20:36:09.132Z,16.50
2019-05-21T20:42:31.779Z,16.50
2019-05-21T20:45:08.902Z,16.40
2019-05-21T20:47:44.528Z,16.40
2019-05-21T20:50:22.288Z,16.30
2019-05-21T20:52:56.683Z,16.30
2019-05-21T20:59:07.577Z,16.30
2019-05-21T21:01:42.367Z,16.20
2019-05-21T21:04:17.023Z,16.20
2019-05-21T21:06:50.796Z,16.20
2019-05-21T21:09:24.641Z,16.20
2019-05-21T21:11:58.634Z,16.20
2019-05-21T21:14:32.301Z,16.20
2019-05-21T21:17:06.688Z,16.10
2019-05-21T21:19:40.779Z,16.10
2019-05-21T21:22:14.551Z,16.10
2019-05-21T21:24:49.118Z,16.10
2019-05-21T21:27:26.978Z,16.00
2019-05-21T21:30:00.835Z,15.90
2019-05-21T21:32:34.767Z,15.90
2019-05-21T21:35:10.372Z,15.90
2019-05-21T21:37:44.981Z,15.90
2019-05-21T21:40:18.779Z,15.80
2019-05-21T21:42:52.536Z,15.80
2019-05-21T21:45:26.505Z,15.70
2019-05-21T21:48:01.248Z,15.70
2019-05-21T21:50:36.606Z,15.70
2019-05-21T21:53:10.951Z,15.80
2019-05-21T21:55:44.647Z,15.80
2019-05-21T21:58:18.388Z,15.70
2019-05-21T22:00:59.263Z,15.70
2019-05-21T22:03:35.766Z,15.70
2019-05-21T22:06:10.315Z,15.60
2019-05-21T22:08:43.972Z,15.60
2019-05-21T22:11:18.453Z,15.60
2019-05-21T22:13:52.558Z,15.50
2019-05-21T22:16:26.459Z,15.50
2019-05-21T22:19:00.162Z,15.50
2019-05-21T22:21:34.279Z,15.50
2019-05-21T22:24:09.144Z,15.50
2019-05-21T22:26:42.838Z,15.50
2019-05-21T22:29:16.643Z,15.40
2019-05-21T22:31:50.309Z,15.40
2019-05-21T22:34:24.538Z,15.30
2019-05-21T22:36:58.265Z,15.30
2019-05-21T22:43:08.682Z,15.20
2019-05-21T22:45:42.869Z,15.20
2019-05-21T22:48:16.508Z,15.20
2019-05-21T22:50:50.418Z,15.10
2019-05-21T22:53:24.457Z,15.10
2019-05-21T22:59:44.466Z,15.00
2019-05-21T23:02:19.883Z,15.00
2019-05-21T23:04:54.057Z,15.00
2019-05-21T23:07:27.648Z,14.90
2019-05-21T23:10:01.471Z,14.90
2019-05-21T23:12:36.063Z,14.90
2019-05-21T23:15:23.780Z,14.90
2019-05-21T23:17:45.846Z,14.90
2019-05-21T23:20:21.345Z,14.90
2019-05-21T23:22:56.770Z,14.80
2019-05-21T23:25:31.304Z,14.80
2019-05-21T23:28:06.180Z,14.80
2019-05-21T23:30:40.868Z,14.80
2019-05-21T23:33:15.329Z,14.80
2019-05-21T23:35:49.113Z,14.70
2019-05-21T23:38:23.735Z,14.70
2019-05-21T23:40:58.363Z,14.60
2019-05-21T23:43:32.650Z,14.60
2019-05-21T23:46:07.462Z,14.60
2019-05-21T23:48:42.147Z,14.60
2019-05-21T23:51:15.804Z,14.50
2019-05-21T23:53:49.788Z,14.50
2019-05-21T23:56:23.684Z,14.50
2019-05-21T23:58:57.342Z,14.50
